Time;durP1;ratioP1;P1;durP2;ratioP2;P2;SDS_P1;SDS_P2;PMS_P1;PMS_P2;Temp;Humidity;BMP_temperature;BMP_pressure;BME280_temperature;BME280_humidity;BME280_pressure;Samples;Min_cycle;Max_cycle;Signal;HPM_P1;HPM_P2
2021/12/29 00:00:56;;;;;;;7.37;2.07;;;9.90;62.10;;;;;;21358;6650;67227;-85
2021/12/29 00:03:22;;;;;;;10.13;2.50;;;9.70;62.70;;;;;;21360;6650;69470;-84
2021/12/29 00:05:47;;;;;;;11.12;3.37;;;9.60;63.20;;;;;;21140;6650;330085;-85
2021/12/29 00:08:13;;;;;;;6.47;2.63;;;9.70;62.80;;;;;;21144;6650;305692;-85
2021/12/29 00:10:38;;;;;;;6.47;1.93;;;10.10;60.80;;;;;;21387;6650;68987;-85
2021/12/29 00:13:05;;;;;;;9.53;2.23;;;10.10;60.70;;;;;;21395;6650;66273;-86
2021/12/29 00:15:29;;;;;;;7.87;1.90;;;9.90;62.00;;;;;;21410;6650;90664;-86
2021/12/29 00:17:55;;;;;;;9.05;2.20;;;9.80;62.60;;;;;;21356;6650;67263;-85
2021/12/29 00:20:22;;;;;;;7.33;2.60;;;9.60;63.00;;;;;;21129;6650;307315;-85
2021/12/29 00:22:46;;;;;;;9.35;2.42;;;9.80;62.60;;;;;;21347;6650;66384;-85
2021/12/29 00:25:12;;;;;;;6.10;2.50;;;9.80;62.40;;;;;;21142;6650;301922;-85
2021/12/29 00:27:37;;;;;;;4.47;1.75;;;10.00;60.90;;;;;;21356;6650;66815;-85
2021/12/29 00:30:03;;;;;;;9.73;2.50;;;10.00;60.90;;;;;;21356;6650;66778;-85
2021/12/29 00:32:28;;;;;;;5.67;2.30;;;9.80;62.20;;;;;;21169;6650;329045;-86
2021/12/29 00:34:54;;;;;;;3.97;2.00;;;10.00;61.00;;;;;;21386;6650;66687;-85
2021/12/29 00:37:20;;;;;;;4.50;2.33;;;10.00;61.00;;;;;;21120;6650;275682;-87
2021/12/29 00:39:45;;;;;;;5.50;2.50;;;10.10;60.40;;;;;;21125;6650;301676;-85
2021/12/29 00:42:11;;;;;;;7.65;2.10;;;10.40;59.60;;;;;;21335;6650;66284;-85
2021/12/29 00:44:36;;;;;;;3.17;1.87;;;10.30;59.60;;;;;;21359;6648;67251;-85
2021/12/29 00:47:03;;;;;;;7.80;1.63;;;9.90;61.90;;;;;;21362;6649;67739;-83
2021/12/29 00:49:34;;;;;;;5.07;1.53;;;9.70;62.40;;;;;;21352;6649;66675;-85
2021/12/29 00:51:57;;;;;;;5.27;1.70;;;9.70;62.40;;;;;;21349;6650;66968;-85
2021/12/29 00:54:23;;;;;;;5.77;2.20;;;9.60;62.90;;;;;;21135;6650;276843;-86
2021/12/29 00:56:48;;;;;;;4.40;1.80;;;9.70;62.50;;;;;;21357;6650;66389;-85
2021/12/29 00:59:14;;;;;;;6.57;2.50;;;9.80;62.20;;;;;;21357;6650;76888;-85
2021/12/29 01:01:40;;;;;;;5.12;1.95;;;9.70;62.60;;;;;;21193;6650;274852;-85
2021/12/29 01:04:05;;;;;;;8.30;2.60;;;9.90;62.20;;;;;;21152;6650;273150;-85
2021/12/29 01:06:31;;;;;;;6.60;1.97;;;10.20;60.30;;;;;;21360;6650;66845;-85
2021/12/29 01:08:56;;;;;;;8.45;2.50;;;10.20;60.20;;;;;;21131;6650;301006;-85
2021/12/29 01:11:23;;;;;;;5.90;2.00;;;10.30;59.90;;;;;;21384;6650;66754;-86
2021/12/29 01:13:48;;;;;;;5.67;2.13;;;10.20;59.90;;;;;;21367;6650;72106;-85
2021/12/29 01:19:05;;;;;;;5.20;1.80;;;9.90;62.10;;;;;;21145;6650;299493;-86
2021/12/29 01:21:31;;;;;;;9.07;2.53;;;10.00;60.50;;;;;;21094;6665;272676;-86
2021/12/29 01:23:56;;;;;;;8.63;2.20;;;10.30;59.70;;;;;;21320;6665;68701;-86
2021/12/29 01:26:21;;;;;;;6.30;2.00;;;10.30;59.70;;;;;;21099;6665;302136;-86
2021/12/29 01:28:47;;;;;;;4.23;1.73;;;10.40;59.50;;;;;;21322;6665;68249;-86
2021/12/29 01:31:13;;;;;;;5.13;1.93;;;10.30;59.60;;;;;;21132;6665;272495;-85
2021/12/29 01:33:38;;;;;;;4.15;1.77;;;10.30;59.20;;;;;;21176;6650;271956;-85
2021/12/29 01:36:04;;;;;;;4.63;1.87;;;10.60;58.50;;;;;;21136;6650;302855;-85
2021/12/29 01:38:29;;;;;;;3.45;1.65;;;10.80;57.70;;;;;;21137;6650;301704;-85
2021/12/29 01:40:55;;;;;;;2.72;1.50;;;10.90;57.20;;;;;;21356;6650;66782;-85
2021/12/29 01:43:20;;;;;;;5.32;1.40;;;10.80;57.50;;;;;;21411;6650;67040;-86
2021/12/29 01:45:46;;;;;;;4.97;1.50;;;10.50;58.30;;;;;;21369;6650;66739;-85
2021/12/29 01:48:11;;;;;;;5.43;1.63;;;10.20;59.10;;;;;;21351;6650;66360;-85
2021/12/29 01:50:38;;;;;;;3.70;1.80;;;10.00;59.80;;;;;;21178;6650;301140;-85
2021/12/29 01:53:08;;;;;;;3.50;1.13;;;10.10;59.40;;;;;;21360;6650;67213;-88
2021/12/29 01:55:30;;;;;;;3.60;1.60;;;10.10;59.50;;;;;;21125;6650;305954;-85
2021/12/29 01:57:54;;;;;;;4.72;1.55;;;10.20;59.10;;;;;;21136;6648;301072;-85
2021/12/29 02:00:19;;;;;;;3.87;1.73;;;10.50;58.20;;;;;;21362;6649;67315;-85
2021/12/29 02:02:46;;;;;;;3.60;1.10;;;10.20;59.00;;;;;;21351;6650;67297;-85
2021/12/29 02:05:11;;;;;;;2.97;1.33;;;10.20;59.00;;;;;;21143;6650;281589;-85
2021/12/29 02:07:37;;;;;;;2.90;1.35;;;10.30;58.70;;;;;;21143;6650;289660;-85
2021/12/29 02:10:03;;;;;;;2.72;1.30;;;10.60;58.10;;;;;;21141;6650;300710;-85
2021/12/29 02:12:28;;;;;;;2.37;1.23;;;10.80;57.50;;;;;;21354;6650;66404;-85
2021/12/29 02:14:53;;;;;;;1.98;0.90;;;10.70;57.70;;;;;;21357;6650;66282;-85
2021/12/29 02:17:19;;;;;;;2.40;1.00;;;10.40;58.50;;;;;;21355;6650;66796;-85
2021/12/29 02:19:46;;;;;;;2.67;1.30;;;10.20;59.30;;;;;;21135;6650;334240;-87
2021/12/29 02:22:21;;;;;;;3.07;1.27;;;10.20;59.10;;;;;;21127;6650;301436;-85
2021/12/29 02:24:39;;;;;;;3.53;1.30;;;10.50;58.40;;;;;;21107;6650;273524;-85
2021/12/29 02:27:01;;;;;;;1.77;0.90;;;10.70;57.90;;;;;;21374;6650;66406;-85
2021/12/29 02:29:27;;;;;;;1.73;1.10;;;10.60;58.00;;;;;;21184;6650;271942;-85
2021/12/29 02:31:52;;;;;;;2.37;1.33;;;10.60;58.10;;;;;;21377;6650;67665;-86
2021/12/29 02:34:18;;;;;;;2.78;1.12;;;10.50;58.40;;;;;;21090;6665;273352;-85
2021/12/29 02:36:44;;;;;;;3.65;1.17;;;10.50;58.40;;;;;;21309;6665;69723;-85
2021/12/29 02:39:10;;;;;;;2.77;1.07;;;10.50;58.90;;;;;;21125;6665;288060;-85
2021/12/29 02:41:36;;;;;;;2.00;1.10;;;10.50;58.90;;;;;;21319;6665;66854;-88
2021/12/29 02:44:01;;;;;;;2.30;1.00;;;10.40;59.00;;;;;;21310;6665;66901;-85
2021/12/29 02:46:26;;;;;;;2.07;1.07;;;10.20;59.70;;;;;;21317;6665;67334;-85
2021/12/29 02:48:59;;;;;;;1.97;1.10;;;10.00;60.20;;;;;;21350;6665;66494;-85
2021/12/29 02:51:17;;;;;;;4.00;1.20;;;9.90;61.80;;;;;;21300;6665;66488;-85
2021/12/29 02:53:43;;;;;;;2.67;1.30;;;9.80;62.30;;;;;;21095;6665;301645;-85
2021/12/29 02:56:09;;;;;;;3.20;1.20;;;9.90;62.10;;;;;;21316;6665;66827;-85
2021/12/29 02:58:34;;;;;;;3.83;1.47;;;10.00;61.00;;;;;;21093;6665;306633;-85
2021/12/29 03:01:01;;;;;;;3.80;1.10;;;10.20;60.60;;;;;;21314;6665;66978;-85
2021/12/29 03:03:26;;;;;;;3.40;1.07;;;10.20;60.60;;;;;;21289;6665;66544;-83
2021/12/29 03:05:52;;;;;;;2.53;1.35;;;10.10;61.20;;;;;;21090;6665;301737;-82
2021/12/29 03:08:17;;;;;;;2.53;1.20;;;10.20;60.80;;;;;;21306;6663;69175;-83
2021/12/29 03:10:43;;;;;;;3.57;1.27;;;10.20;60.70;;;;;;21084;6664;336056;-83
2021/12/29 03:13:08;;;;;;;2.17;1.00;;;10.40;60.50;;;;;;21303;6664;88923;-83
2021/12/29 03:15:34;;;;;;;2.72;1.40;;;10.40;60.40;;;;;;21092;6664;275045;-82
2021/12/29 03:17:59;;;;;;;5.47;1.45;;;10.50;60.20;;;;;;21094;6664;302451;-83
2021/12/29 03:20:25;;;;;;;2.20;0.90;;;10.70;59.40;;;;;;21307;6664;66814;-82
2021/12/29 03:22:51;;;;;;;4.40;1.57;;;10.70;59.50;;;;;;21146;6650;300946;-82
2021/12/29 03:25:16;;;;;;;2.10;1.10;;;10.70;59.30;;;;;;21345;6650;95022;-82
2021/12/29 03:27:42;;;;;;;3.53;1.50;;;10.60;59.60;;;;;;21153;6650;303610;-82
2021/12/29 03:30:07;;;;;;;2.27;1.10;;;10.70;59.50;;;;;;21391;6650;69579;-82
2021/12/29 03:32:43;;;;;;;2.17;1.10;;;10.60;59.60;;;;;;21358;6650;66395;-82
2021/12/29 03:35:05;;;;;;;2.87;1.40;;;10.40;60.20;;;;;;21353;6650;66291;-82
2021/12/29 03:37:30;;;;;;;3.03;1.50;;;10.20;60.80;;;;;;21141;6650;301577;-82
2021/12/29 03:39:56;;;;;;;4.35;1.62;;;10.30;60.80;;;;;;21370;6650;66438;-82
2021/12/29 03:42:21;;;;;;;4.57;1.42;;;10.30;60.70;;;;;;21134;6650;330677;-83
2021/12/29 03:44:47;;;;;;;2.63;1.00;;;10.50;60.40;;;;;;21356;6650;66297;-82
2021/12/29 03:47:12;;;;;;;2.65;1.40;;;10.50;60.40;;;;;;21187;6650;272333;-82
2021/12/29 03:49:38;;;;;;;4.73;1.30;;;10.60;60.10;;;;;;21357;6650;66914;-83
2021/12/29 03:52:05;;;;;;;3.57;1.43;;;10.60;60.10;;;;;;21136;6650;301498;-82
2021/12/29 03:54:29;;;;;;;3.00;1.53;;;10.60;59.80;;;;;;21347;6650;66354;-82
2021/12/29 03:56:55;;;;;;;2.73;1.30;;;10.60;59.90;;;;;;21362;6650;66379;-82
2021/12/29 03:59:21;;;;;;;3.53;0.97;;;10.20;61.00;;;;;;21357;6650;67207;-83
2021/12/29 04:01:50;;;;;;;3.77;1.20;;;10.20;61.10;;;;;;21357;6650;68322;-83
2021/12/29 04:04:12;;;;;;;3.37;1.48;;;10.10;62.00;;;;;;21359;6650;66271;-82
2021/12/29 04:06:38;;;;;;;3.53;1.25;;;9.90;62.90;;;;;;21422;6650;68607;-82
2021/12/29 04:09:04;;;;;;;3.03;1.00;;;9.80;63.30;;;;;;21365;6650;67089;-82
2021/12/29 04:11:29;;;;;;;5.00;1.33;;;9.80;63.60;;;;;;21137;6650;301054;-83
2021/12/29 04:13:54;;;;;;;4.10;1.23;;;10.00;62.10;;;;;;21369;6650;66740;-82
2021/12/29 04:16:20;;;;;;;2.37;1.00;;;10.10;61.90;;;;;;21372;6650;67272;-84
2021/12/29 04:19:05;;;;;;;3.15;1.08;;;10.00;62.10;;;;;;21406;6650;66778;-89
2021/12/29 04:21:11;;;;;;;3.30;1.17;;;9.90;63.40;;;;;;21301;6649;66793;-82
2021/12/29 04:23:37;;;;;;;4.17;1.47;;;10.00;62.60;;;;;;21144;6649;336844;-83
2021/12/29 04:26:03;;;;;;;3.08;1.27;;;10.00;62.00;;;;;;21142;6650;330021;-83
2021/12/29 04:28:28;;;;;;;2.70;1.17;;;10.40;60.80;;;;;;21135;6650;273397;-85
2021/12/29 04:30:54;;;;;;;2.13;1.00;;;10.70;59.90;;;;;;21140;6650;301554;-83
2021/12/29 04:33:19;;;;;;;3.07;1.00;;;11.00;58.60;;;;;;21326;6650;66617;-83
2021/12/29 04:35:46;;;;;;;3.67;1.30;;;10.60;60.00;;;;;;21355;6650;72573;-83
2021/12/29 04:38:11;;;;;;;3.65;1.33;;;10.60;59.60;;;;;;21134;6650;302825;-83
2021/12/29 04:40:37;;;;;;;2.50;0.80;;;10.70;59.20;;;;;;21363;6650;66294;-82
2021/12/29 04:43:02;;;;;;;1.83;1.00;;;10.60;59.30;;;;;;21139;6650;302886;-83
2021/12/29 04:45:29;;;;;;;2.53;1.00;;;10.90;58.40;;;;;;21147;6650;285225;-85
2021/12/29 04:47:54;;;;;;;1.63;0.70;;;10.90;58.10;;;;;;21388;6650;66365;-83
2021/12/29 04:50:35;;;;;;;2.53;1.00;;;10.90;58.40;;;;;;21093;6665;318065;-83
2021/12/29 04:52:58;;;;;;;2.10;1.08;;;10.90;58.00;;;;;;21077;6665;272518;-83
2021/12/29 04:55:24;;;;;;;1.65;0.82;;;11.10;57.40;;;;;;21086;6665;305704;-82
2021/12/29 04:57:50;;;;;;;1.15;0.60;;;11.20;57.10;;;;;;21317;6665;67406;-86
2021/12/29 05:00:16;;;;;;;3.10;0.63;;;11.10;57.00;;;;;;21319;6665;66438;-83
2021/12/29 05:02:42;;;;;;;1.40;0.80;;;10.90;57.90;;;;;;21327;6665;67277;-83
2021/12/29 05:05:19;;;;;;;0.73;0.60;;;10.60;58.70;;;;;;21372;6665;66885;-84
2021/12/29 05:10:18;;;;;;;1.67;0.80;;;10.20;59.90;;;;;;21370;6650;66518;-83
2021/12/29 05:12:44;;;;;;;2.57;0.97;;;10.00;60.30;;;;;;21136;6650;303038;-82
2021/12/29 05:15:09;;;;;;;1.77;0.80;;;10.20;60.00;;;;;;21357;6650;66352;-85
2021/12/29 05:17:35;;;;;;;2.12;0.93;;;10.30;60.00;;;;;;21134;6650;272566;-86
2021/12/29 05:20:01;;;;;;;2.53;1.10;;;10.80;59.40;;;;;;21136;6650;306757;-85
2021/12/29 05:22:27;;;;;;;2.50;1.00;;;10.80;59.40;;;;;;21379;6650;66498;-86
2021/12/29 05:24:52;;;;;;;2.37;0.82;;;10.70;59.30;;;;;;21242;6650;66971;-84
2021/12/29 05:27:18;;;;;;;1.90;1.00;;;10.50;59.90;;;;;;21119;6650;330795;-85
2021/12/29 05:29:43;;;;;;;3.33;1.17;;;10.60;60.10;;;;;;21145;6650;272769;-84
2021/12/29 05:32:09;;;;;;;2.70;1.10;;;10.90;59.80;;;;;;21086;6663;304630;-85
2021/12/29 05:34:34;;;;;;;2.77;1.00;;;11.10;59.20;;;;;;21091;6664;331146;-86
2021/12/29 05:37:00;;;;;;;2.53;1.00;;;11.30;58.70;;;;;;21309;6664;99081;-85
2021/12/29 05:39:26;;;;;;;2.50;1.00;;;11.20;58.90;;;;;;21309;6664;68183;-84
2021/12/29 05:41:51;;;;;;;2.23;0.80;;;10.90;59.60;;;;;;21293;6664;66843;-85
2021/12/29 05:44:17;;;;;;;2.50;1.00;;;10.60;60.30;;;;;;21092;6664;319066;-86
2021/12/29 05:46:43;;;;;;;2.28;0.90;;;10.70;60.50;;;;;;21307;6664;66366;-85
2021/12/29 05:49:08;;;;;;;2.90;0.80;;;10.70;60.60;;;;;;21092;6664;302351;-85
2021/12/29 05:51:33;;;;;;;3.40;1.02;;;10.80;60.70;;;;;;21135;6650;272973;-84
2021/12/29 05:53:59;;;;;;;4.67;1.20;;;11.00;60.10;;;;;;21370;6650;66792;-85
2021/12/29 05:56:25;;;;;;;4.53;1.20;;;10.90;60.00;;;;;;21193;6650;304740;-85
2021/12/29 05:58:50;;;;;;;1.87;0.73;;;10.90;60.40;;;;;;21367;6650;66589;-84
2021/12/29 06:01:16;;;;;;;2.23;1.00;;;10.80;60.60;;;;;;21340;6650;70965;-85
2021/12/29 06:03:43;;;;;;;3.17;0.87;;;10.50;61.20;;;;;;21379;6650;66325;-84
2021/12/29 06:06:07;;;;;;;3.90;1.30;;;10.30;62.00;;;;;;21147;6650;300926;-83
2021/12/29 06:08:33;;;;;;;3.55;1.23;;;10.40;62.30;;;;;;21388;6650;67686;-84
2021/12/29 06:10:59;;;;;;;3.27;1.00;;;10.40;62.30;;;;;;21388;6650;66684;-83
2021/12/29 06:13:24;;;;;;;3.15;1.10;;;10.20;62.50;;;;;;21414;6650;66738;-89
2021/12/29 06:15:50;;;;;;;3.40;1.33;;;10.00;63.30;;;;;;21157;6650;272488;-85
2021/12/29 06:18:15;;;;;;;3.22;0.90;;;10.20;63.60;;;;;;21336;6650;66323;-83
2021/12/29 06:20:41;;;;;;;2.07;0.63;;;10.20;63.30;;;;;;21386;6650;71531;-86
2021/12/29 06:23:07;;;;;;;3.93;1.00;;;10.10;63.80;;;;;;21308;6650;66687;-84
2021/12/29 06:25:32;;;;;;;3.40;1.12;;;9.90;65.20;;;;;;21134;6650;323207;-84
2021/12/29 06:27:58;;;;;;;2.40;0.87;;;10.10;64.60;;;;;;21380;6650;66737;-84
2021/12/29 06:30:23;;;;;;;0.80;0.73;;;10.20;64.30;;;;;;21376;6650;66276;-84
2021/12/29 06:32:49;;;;;;;4.03;1.20;;;10.00;64.40;;;;;;21154;6650;332655;-84
2021/12/29 06:35:14;;;;;;;3.20;1.20;;;10.20;64.70;;;;;;21161;6650;293414;-84
2021/12/29 06:37:40;;;;;;;3.80;1.20;;;10.50;64.40;;;;;;21106;6665;303241;-85
2021/12/29 06:40:06;;;;;;;3.85;1.25;;;10.80;62.90;;;;;;21113;6665;296348;-84
2021/12/29 06:42:31;;;;;;;3.73;1.10;;;11.00;62.10;;;;;;21336;6663;66408;-84
2021/12/29 06:44:57;;;;;;;4.07;1.20;;;10.90;62.30;;;;;;21138;6664;332667;-84
2021/12/29 06:47:22;;;;;;;4.67;1.20;;;10.90;62.40;;;;;;21357;6664;66365;-85
2021/12/29 06:49:48;;;;;;;4.10;1.30;;;10.80;62.60;;;;;;21139;6664;272306;-88
2021/12/29 06:52:14;;;;;;;4.97;1.33;;;10.90;62.60;;;;;;21114;6664;302945;-85
2021/12/29 06:54:39;;;;;;;2.00;0.80;;;11.10;62.00;;;;;;21363;6650;71033;-84
2021/12/29 06:57:05;;;;;;;2.20;0.93;;;11.00;62.10;;;;;;21141;6650;272704;-85
2021/12/29 06:59:31;;;;;;;2.73;1.20;;;10.90;62.10;;;;;;21362;6650;66276;-83
2021/12/29 07:01:57;;;;;;;4.28;1.23;;;10.80;62.20;;;;;;21145;6650;301991;-85
2021/12/29 07:04:23;;;;;;;2.70;1.00;;;10.80;62.20;;;;;;21381;6650;67031;-83
2021/12/29 07:06:48;;;;;;;2.63;0.90;;;10.70;62.20;;;;;;21376;6650;66658;-84
2021/12/29 07:09:14;;;;;;;3.00;1.30;;;10.50;62.90;;;;;;21147;6650;301037;-84
2021/12/29 07:11:39;;;;;;;3.60;1.27;;;10.60;63.00;;;;;;21144;6650;305103;-82
2021/12/29 07:14:06;;;;;;;2.97;1.17;;;10.80;62.20;;;;;;21371;6650;66789;-82
2021/12/29 07:16:30;;;;;;;2.23;0.93;;;10.70;62.10;;;;;;21367;6650;66716;-81
2021/12/29 07:18:56;;;;;;;2.07;1.10;;;10.40;62.70;;;;;;21134;6650;330225;-82
2021/12/29 07:21:21;;;;;;;1.03;0.80;;;10.50;63.00;;;;;;21349;6650;68343;-82
2021/12/29 07:23:48;;;;;;;3.05;1.12;;;10.20;63.40;;;;;;21361;6650;68708;-81
2021/12/29 07:26:13;;;;;;;2.50;0.90;;;10.20;63.40;;;;;;21368;6650;73950;-81
2021/12/29 07:28:40;;;;;;;4.28;0.70;;;9.90;65.70;;;;;;21398;6650;66272;-85
2021/12/29 07:31:05;;;;;;;3.13;1.10;;;9.90;65.70;;;;;;21367;6650;66929;-81
2021/12/29 07:33:32;;;;;;;2.33;1.00;;;9.80;66.20;;;;;;21391;6650;66286;-79
2021/12/29 07:35:56;;;;;;;2.03;1.00;;;9.70;66.70;;;;;;21375;6650;89041;-79
2021/12/29 07:38:22;;;;;;;2.75;0.90;;;9.60;67.60;;;;;;21390;6650;88608;-81
2021/12/29 07:40:47;;;;;;;4.90;1.13;;;9.60;67.30;;;;;;21391;6650;66312;-80
2021/12/29 07:43:13;;;;;;;1.83;0.90;;;9.60;67.60;;;;;;21382;6650;96116;-80
2021/12/29 07:45:42;;;;;;;3.63;1.23;;;9.60;67.80;;;;;;21180;6650;330208;-82
2021/12/29 07:48:05;;;;;;;2.47;1.13;;;9.90;67.40;;;;;;21166;6650;302356;-83
2021/12/29 07:50:30;;;;;;;2.93;1.17;;;10.30;65.10;;;;;;21169;6650;301803;-81
2021/12/29 07:52:55;;;;;;;3.83;1.20;;;10.70;63.70;;;;;;21169;6650;300743;-81
2021/12/29 07:55:21;;;;;;;2.43;0.80;;;11.00;62.50;;;;;;21408;6648;71758;-81
2021/12/29 07:57:46;;;;;;;1.12;0.70;;;10.90;62.30;;;;;;21434;6649;71325;-82
2021/12/29 08:00:12;;;;;;;1.30;0.93;;;10.60;62.80;;;;;;21387;6649;66689;-81
2021/12/29 08:02:38;;;;;;;3.23;1.30;;;10.40;63.50;;;;;;21163;6650;301699;-82
2021/12/29 08:05:04;;;;;;;3.93;1.10;;;10.50;63.40;;;;;;21380;6650;66816;-81
2021/12/29 08:07:30;;;;;;;1.73;0.77;;;10.50;63.40;;;;;;21370;6650;66341;-81
2021/12/29 08:09:56;;;;;;;2.27;1.00;;;10.20;64.40;;;;;;21334;6664;66446;-81
2021/12/29 08:12:21;;;;;;;3.87;1.27;;;10.20;64.40;;;;;;21114;6664;306360;-82
2021/12/29 08:14:49;;;;;;;2.53;1.02;;;10.40;64.00;;;;;;21340;6665;66445;-80
2021/12/29 08:17:13;;;;;;;0.67;0.50;;;10.40;64.50;;;;;;21370;6650;66721;-81
2021/12/29 08:19:39;;;;;;;2.70;1.00;;;10.30;64.30;;;;;;21120;6665;301199;-80
2021/12/29 08:22:04;;;;;;;2.23;0.97;;;10.40;64.10;;;;;;21178;6650;299984;-80
2021/12/29 08:24:30;;;;;;;1.87;0.80;;;10.80;63.00;;;;;;21404;6650;68148;-82
2021/12/29 08:26:55;;;;;;;2.43;0.90;;;10.80;62.90;;;;;;21147;6650;301747;-81
2021/12/29 08:29:21;;;;;;;3.42;1.12;;;10.90;62.50;;;;;;21165;6650;307287;-81
2021/12/29 08:31:47;;;;;;;1.63;0.77;;;11.10;61.60;;;;;;21432;6650;66705;-81
2021/12/29 08:34:12;;;;;;;2.35;0.75;;;11.10;61.70;;;;;;21385;6650;66723;-82
2021/12/29 08:36:38;;;;;;;1.73;0.83;;;10.80;62.30;;;;;;21382;6650;67387;-82
2021/12/29 08:39:03;;;;;;;1.90;1.15;;;10.60;63.00;;;;;;21376;6650;67397;-81
2021/12/29 08:41:29;;;;;;;1.47;0.90;;;10.40;63.60;;;;;;21376;6650;66791;-80
2021/12/29 08:43:54;;;;;;;3.63;1.20;;;10.30;64.10;;;;;;21165;6650;334996;-82
2021/12/29 08:46:22;;;;;;;3.23;0.80;;;10.50;63.70;;;;;;21379;6650;88212;-81
2021/12/29 08:48:46;;;;;;;2.50;1.30;;;10.60;63.50;;;;;;21158;6650;283161;-81
2021/12/29 08:51:11;;;;;;;3.03;1.23;;;10.80;62.80;;;;;;21162;6650;272846;-81
2021/12/29 08:53:37;;;;;;;3.30;1.00;;;11.10;61.70;;;;;;21374;6650;66383;-82
2021/12/29 08:56:02;;;;;;;2.43;1.10;;;11.10;61.60;;;;;;21166;6650;319596;-81
2021/12/29 08:58:28;;;;;;;1.60;0.90;;;11.10;61.20;;;;;;21391;6650;66411;-82
2021/12/29 09:00:53;;;;;;;1.80;0.95;;;11.10;61.40;;;;;;21157;6650;329902;-81
2021/12/29 09:03:19;;;;;;;2.00;1.10;;;11.10;60.70;;;;;;21355;6650;66372;-81
2021/12/29 09:05:44;;;;;;;1.67;1.10;;;11.10;61.00;;;;;;21147;6648;301899;-82
2021/12/29 09:08:10;;;;;;;3.30;1.47;;;11.20;60.60;;;;;;21372;6649;66789;-82
2021/12/29 09:10:36;;;;;;;3.43;1.40;;;11.10;60.90;;;;;;21161;6649;301077;-81
2021/12/29 09:13:01;;;;;;;3.17;1.13;;;11.30;60.70;;;;;;21187;6650;301309;-82
2021/12/29 09:15:27;;;;;;;2.33;1.10;;;11.50;60.00;;;;;;21402;6650;66350;-82
2021/12/29 09:17:53;;;;;;;1.47;1.07;;;11.50;59.70;;;;;;21158;6650;276563;-81
2021/12/29 09:20:27;;;;;;;3.53;1.50;;;11.50;59.70;;;;;;21163;6650;272892;-82
2021/12/29 09:22:51;;;;;;;2.87;1.40;;;11.70;59.30;;;;;;21370;6650;69553;-81
2021/12/29 09:25:17;;;;;;;1.27;1.03;;;11.30;60.40;;;;;;21366;6650;66818;-81
2021/12/29 09:27:47;;;;;;;1.80;1.07;;;11.30;60.40;;;;;;21151;6650;305176;-82
2021/12/29 09:30:08;;;;;;;1.98;1.10;;;11.40;60.00;;;;;;21362;6650;67514;-81
2021/12/29 09:32:34;;;;;;;2.07;1.10;;;11.40;60.40;;;;;;21376;6650;67249;-81
2021/12/29 09:35:00;;;;;;;2.00;1.10;;;11.10;61.70;;;;;;21370;6650;66809;-82
2021/12/29 09:37:25;;;;;;;3.13;1.00;;;11.10;61.60;;;;;;21398;6650;66280;-81
2021/12/29 09:39:51;;;;;;;1.67;0.80;;;11.00;62.10;;;;;;21377;6650;66359;-82
2021/12/29 09:42:17;;;;;;;2.80;1.12;;;11.00;62.60;;;;;;21156;6650;329470;-81
2021/12/29 09:44:42;;;;;;;2.30;1.00;;;11.20;62.00;;;;;;21387;6650;66331;-80
2021/12/29 09:47:08;;;;;;;4.23;1.13;;;11.30;61.90;;;;;;21387;6650;67174;-82
2021/12/29 09:49:34;;;;;;;2.20;1.03;;;11.50;60.60;;;;;;21165;6650;330206;-81
2021/12/29 09:51:59;;;;;;;1.73;1.00;;;11.50;60.50;;;;;;21393;6650;71973;-78
2021/12/29 09:54:26;;;;;;;1.77;1.00;;;11.40;60.90;;;;;;21375;6650;68361;-82
2021/12/29 09:56:51;;;;;;;2.97;0.80;;;11.40;60.90;;;;;;21360;6650;66335;-81
2021/12/29 09:59:18;;;;;;;1.43;1.10;;;11.30;61.60;;;;;;21357;6650;66359;-80
2021/12/29 10:01:42;;;;;;;1.80;0.93;;;11.30;62.00;;;;;;21180;6650;329017;-82
2021/12/29 10:04:08;;;;;;;0.95;0.80;;;11.50;59.90;;;;;;21382;6650;67328;-81
2021/12/29 10:06:34;;;;;;;1.13;0.97;;;11.60;60.30;;;;;;21384;6650;66523;-81
2021/12/29 10:09:01;;;;;;;2.37;1.23;;;11.50;60.20;;;;;;21159;6650;273885;-82
2021/12/29 10:11:28;;;;;;;2.07;0.90;;;11.70;58.50;;;;;;21126;6650;271373;-81
2021/12/29 10:13:54;;;;;;;1.87;1.17;;;12.00;57.50;;;;;;21171;6650;300186;-81
2021/12/29 10:16:19;;;;;;;2.73;1.00;;;12.40;56.10;;;;;;21173;6650;301073;-82
2021/12/29 10:18:48;;;;;;;2.90;1.20;;;12.60;55.80;;;;;;21358;6648;66680;-81
2021/12/29 10:21:10;;;;;;;2.00;1.33;;;12.50;56.40;;;;;;21161;6649;272544;-81
2021/12/29 10:23:36;;;;;;;2.37;1.30;;;12.60;55.60;;;;;;21157;6650;302084;-81
2021/12/29 10:26:18;;;;;;;1.80;0.80;;;12.80;55.30;;;;;;21290;6650;66672;-80
2021/12/29 10:28:50;;;;;;;2.70;1.17;;;12.30;56.50;;;;;;21313;6664;70976;-81
2021/12/29 10:31:16;;;;;;;1.20;0.70;;;12.10;57.40;;;;;;21370;6664;69240;-80
2021/12/29 10:33:42;;;;;;;1.70;0.77;;;12.10;57.40;;;;;;21348;6664;66953;-81
2021/12/29 10:36:10;;;;;;;2.27;1.00;;;11.90;58.00;;;;;;21357;6650;66686;-82
2021/12/29 10:38:36;;;;;;;3.13;1.30;;;11.80;58.50;;;;;;21160;6650;307807;-82
2021/12/29 10:41:03;;;;;;;1.53;1.17;;;11.90;56.90;;;;;;21382;6650;67343;-80
2021/12/29 10:43:27;;;;;;;1.50;1.27;;;11.90;57.20;;;;;;21374;6650;67255;-81
2021/12/29 10:45:53;;;;;;;3.27;1.30;;;11.80;57.70;;;;;;21168;6650;275681;-82
2021/12/29 10:48:21;;;;;;;1.80;1.10;;;11.90;57.30;;;;;;21376;6650;69569;-82
2021/12/29 10:50:57;;;;;;;4.10;1.20;;;11.90;57.40;;;;;;21144;6665;300513;-81
2021/12/29 10:53:22;;;;;;;1.97;1.30;;;12.00;56.50;;;;;;21337;6665;66357;-81
2021/12/29 10:55:48;;;;;;;4.20;1.20;;;12.00;57.00;;;;;;21118;6665;302129;-82
2021/12/29 10:58:14;;;;;;;3.87;1.20;;;12.10;56.40;;;;;;21113;6665;302513;-82
2021/12/29 11:00:39;;;;;;;3.60;1.30;;;12.30;56.00;;;;;;21122;6665;273928;-80
2021/12/29 11:03:14;;;;;;;2.97;1.43;;;12.60;55.40;;;;;;21159;6650;301354;-81
2021/12/29 11:05:40;;;;;;;2.73;1.20;;;12.70;54.90;;;;;;21330;6665;66814;-82
2021/12/29 11:08:05;;;;;;;3.22;1.37;;;12.60;55.60;;;;;;21105;6665;272487;-81
2021/12/29 11:10:31;;;;;;;2.97;1.17;;;12.80;55.30;;;;;;21101;6665;335757;-83
2021/12/29 11:12:57;;;;;;;1.80;1.30;;;12.80;55.30;;;;;;21116;6665;330726;-82
2021/12/29 11:15:26;;;;;;;1.87;1.30;;;13.00;54.90;;;;;;21375;6650;67611;-81
2021/12/29 11:17:51;;;;;;;2.73;1.33;;;12.90;55.40;;;;;;21116;6665;273589;-81
2021/12/29 11:20:17;;;;;;;2.20;1.15;;;12.90;55.10;;;;;;21339;6665;70724;-81
2021/12/29 11:22:43;;;;;;;2.08;1.15;;;12.80;55.60;;;;;;21144;6650;330919;-82
2021/12/29 11:25:08;;;;;;;1.53;1.10;;;12.80;54.80;;;;;;21376;6650;66342;-81
2021/12/29 11:27:35;;;;;;;3.63;1.43;;;12.70;55.30;;;;;;21162;6650;271541;-82
2021/12/29 11:30:06;;;;;;;3.53;1.40;;;12.70;54.80;;;;;;21378;6648;67031;-81
2021/12/29 11:32:32;;;;;;;2.53;1.47;;;12.60;55.20;;;;;;21169;6649;301451;-80
2021/12/29 11:35:08;;;;;;;5.27;1.57;;;12.60;55.20;;;;;;21382;6649;73612;-81
2021/12/29 11:37:33;;;;;;;3.00;1.43;;;12.50;55.70;;;;;;21109;6664;305636;-82
2021/12/29 11:39:58;;;;;;;2.58;1.42;;;12.60;54.90;;;;;;21124;6664;304338;-81
2021/12/29 11:42:24;;;;;;;2.50;1.37;;;12.80;54.90;;;;;;21353;6664;67008;-82
2021/12/29 11:44:49;;;;;;;2.08;1.30;;;12.80;55.40;;;;;;21129;6664;272364;-83
2021/12/29 11:47:15;;;;;;;2.83;1.57;;;12.80;55.00;;;;;;21333;6664;66425;-81
2021/12/29 11:49:41;;;;;;;1.92;1.30;;;12.70;55.50;;;;;;21366;6665;66971;-84
2021/12/29 11:52:09;;;;;;;3.27;1.30;;;12.50;56.20;;;;;;21333;6665;67278;-83
2021/12/29 11:54:58;;;;;;;3.80;1.30;;;12.30;56.70;;;;;;21331;6665;66953;-83
2021/12/29 11:57:24;;;;;;;2.53;1.70;;;12.20;57.30;;;;;;21374;6650;67173;-83
2021/12/29 11:59:49;;;;;;;2.05;1.52;;;12.00;57.60;;;;;;21150;6650;272323;-88
2021/12/29 12:02:25;;;;;;;2.13;1.40;;;12.20;56.60;;;;;;21380;6650;66528;-82
2021/12/29 12:05:00;;;;;;;4.70;1.80;;;12.20;56.80;;;;;;21160;6650;272968;-82
2021/12/29 12:07:26;;;;;;;4.30;1.80;;;12.40;55.80;;;;;;21113;6665;275556;-83
2021/12/29 12:09:52;;;;;;;3.37;1.63;;;12.70;55.10;;;;;;21384;6650;67305;-83
2021/12/29 12:12:17;;;;;;;2.93;1.73;;;12.70;55.40;;;;;;21385;6650;66364;-81
2021/12/29 12:14:43;;;;;;;2.73;1.90;;;12.50;55.00;;;;;;21165;6650;301515;-82
2021/12/29 12:17:09;;;;;;;2.60;1.80;;;12.50;54.90;;;;;;21133;6650;302104;-83
2021/12/29 12:19:35;;;;;;;3.35;1.92;;;12.70;54.20;;;;;;21158;6650;333853;-83
2021/12/29 12:22:06;;;;;;;4.33;2.00;;;12.90;53.80;;;;;;21118;6665;272438;-82
2021/12/29 12:24:32;;;;;;;5.57;2.13;;;13.10;53.50;;;;;;21340;6665;70548;-82
2021/12/29 12:27:00;;;;;;;3.47;1.83;;;12.90;54.00;;;;;;21113;6665;306571;-83
2021/12/29 12:29:29;;;;;;;2.10;1.70;;;12.80;53.90;;;;;;21346;6665;66938;-82
2021/12/29 12:32:04;;;;;;;2.00;1.77;;;12.70;54.60;;;;;;21304;6665;70957;-82
2021/12/29 12:34:30;;;;;;;2.50;1.70;;;12.50;55.50;;;;;;21333;6665;70202;-81
2021/12/29 12:36:55;;;;;;;3.93;1.50;;;12.30;56.30;;;;;;21333;6665;66384;-81
2021/12/29 12:39:21;;;;;;;2.50;1.77;;;12.10;57.10;;;;;;21328;6665;66837;-81
2021/12/29 12:41:50;;;;;;;4.33;2.00;;;12.10;57.00;;;;;;21127;6663;273068;-84